createdAt,value
2023-05-04T00:00:48.122Z,76.6951
2023-05-04T00:01:50.521Z,76.6319
2023-05-04T00:02:52.973Z,76.6763
2023-05-04T00:03:55.632Z,76.6365
2023-05-04T00:04:55.659Z,76.7538
2023-05-04T00:05:58.020Z,76.6753
2023-05-04T00:07:00.362Z,76.6368
2023-05-04T00:08:02.688Z,76.6497
2023-05-04T00:09:05.183Z,76.7217
2023-05-04T00:10:07.918Z,76.8118
2023-05-04T00:11:08.069Z,76.9138
2023-05-04T00:12:10.383Z,76.8836
2023-05-04T00:13:12.808Z,76.9691
2023-05-04T00:14:15.143Z,77.2394
2023-05-04T00:15:17.516Z,77.3768
2023-05-04T00:16:19.828Z,77.5378
2023-05-04T00:17:22.148Z,77.7118
2023-05-04T00:18:24.509Z,77.8148
2023-05-04T00:19:26.846Z,77.7192
2023-05-04T00:20:29.265Z,77.6899
2023-05-04T00:21:31.639Z,77.5642
2023-05-04T00:22:34.043Z,77.5489
2023-05-04T00:23:36.414Z,77.7303
2023-05-04T00:24:38.818Z,77.6926
2023-05-04T00:25:41.293Z,77.6842
2023-05-04T00:26:43.661Z,77.9817
2023-05-04T00:27:46.046Z,77.9153
2023-05-04T00:28:48.429Z,77.9661
2023-05-04T00:29:50.840Z,77.8128
2023-05-04T00:30:53.192Z,77.6862
2023-05-04T00:31:55.759Z,77.8487
2023-05-04T00:32:55.979Z,77.7917
2023-05-04T00:33:58.411Z,77.8389
2023-05-04T00:35:00.872Z,77.7039
2023-05-04T00:36:03.258Z,77.6705
2023-05-04T00:37:05.713Z,77.5778
2023-05-04T00:38:08.103Z,77.4902
2023-05-04T00:39:10.489Z,77.6368
2023-05-04T00:40:12.876Z,77.5932
2023-05-04T00:41:15.233Z,77.6579
2023-05-04T00:42:17.553Z,77.5454
2023-05-04T00:43:19.972Z,77.6067
2023-05-04T00:44:22.516Z,77.4520
2023-05-04T00:45:24.861Z,77.9073
2023-05-04T00:46:27.288Z,77.9537
2023-05-04T00:47:29.741Z,77.9299
2023-05-04T00:48:32.201Z,77.9197
2023-05-04T00:49:34.557Z,77.8404
2023-05-04T00:50:36.888Z,77.8840
2023-05-04T00:51:39.277Z,77.9450
2023-05-04T00:52:41.671Z,77.9116
2023-05-04T00:53:43.997Z,77.8944
2023-05-04T00:54:46.339Z,77.6576
2023-05-04T00:55:48.698Z,77.6752
2023-05-04T00:56:51.035Z,77.9000
2023-05-04T00:57:53.425Z,77.9328
2023-05-04T00:58:55.862Z,77.6751
2023-05-04T00:59:58.232Z,77.4637
2023-05-04T01:01:00.618Z,77.5635
2023-05-04T01:02:02.994Z,77.4827
2023-05-04T01:03:05.620Z,77.6048
2023-05-04T01:04:08.246Z,77.8255
2023-05-04T01:05:08.201Z,77.9264
2023-05-04T01:06:10.531Z,78.0188
2023-05-04T01:07:12.967Z,78.1144
2023-05-04T01:08:15.329Z,78.0176
2023-05-04T01:09:17.738Z,78.0028
2023-05-04T01:10:20.213Z,78.1291
2023-05-04T01:11:22.752Z,78.1410
2023-05-04T01:12:25.197Z,77.8895
2023-05-04T01:13:27.588Z,78.0793
2023-05-04T01:14:29.934Z,78.3050
2023-05-04T01:15:32.449Z,78.3311
2023-05-04T01:16:34.885Z,78.3963
2023-05-04T01:17:37.276Z,78.4798
2023-05-04T01:18:39.647Z,78.5651
2023-05-04T01:19:42.065Z,78.5562
2023-05-04T01:20:44.389Z,78.6560
2023-05-04T01:21:46.924Z,78.4984
2023-05-04T01:22:49.391Z,78.5127
2023-05-04T01:23:51.778Z,78.2917
2023-05-04T01:24:54.163Z,78.1655
2023-05-04T01:25:56.591Z,78.2770
2023-05-04T01:26:58.960Z,78.2979
2023-05-04T01:28:01.332Z,78.4332
2023-05-04T01:29:03.757Z,78.7954
2023-05-04T01:30:06.319Z,78.7695
2023-05-04T01:31:06.284Z,78.9664
2023-05-04T01:32:08.683Z,78.9258
2023-05-04T01:33:11.095Z,79.0299
2023-05-04T01:34:13.548Z,79.1250
2023-05-04T01:35:15.963Z,79.0746
2023-05-04T01:36:18.389Z,79.1135
2023-05-04T01:37:20.822Z,79.0963
2023-05-04T01:38:23.263Z,79.0483
2023-05-04T01:39:25.675Z,79.2706
2023-05-04T01:40:28.101Z,79.4419
2023-05-04T01:41:30.493Z,79.0935
2023-05-04T01:42:32.927Z,79.4756
2023-05-04T01:43:35.316Z,79.4392
2023-05-04T01:44:37.790Z,79.5953
2023-05-04T01:45:40.197Z,79.6918
2023-05-04T01:46:42.582Z,79.8217
2023-05-04T01:47:45.016Z,79.7094
2023-05-04T01:48:47.542Z,79.7984
2023-05-04T01:49:50.036Z,79.5097
2023-05-04T01:50:52.432Z,79.6468
2023-05-04T01:51:54.775Z,79.6310
2023-05-04T01:52:57.166Z,79.7982
2023-05-04T01:53:59.654Z,79.8498
2023-05-04T01:55:02.106Z,79.9825
2023-05-04T01:56:04.478Z,80.0145
2023-05-04T01:57:06.889Z,79.8324
2023-05-04T01:58:09.283Z,79.7817
2023-05-04T01:59:11.680Z,79.5816
2023-05-04T02:00:14.074Z,79.6194
2023-05-04T02:01:16.557Z,79.5867
2023-05-04T02:02:18.971Z,79.6510
2023-05-04T02:03:21.473Z,79.7251
2023-05-04T02:04:23.957Z,79.9858
2023-05-04T02:05:26.267Z,79.9295
2023-05-04T02:06:28.638Z,80.0795
2023-05-04T02:07:31.020Z,79.9619
2023-05-04T02:08:33.387Z,80.1761
2023-05-04T02:09:35.791Z,80.1552
2023-05-04T02:10:38.159Z,80.1751
2023-05-04T02:11:40.493Z,80.1558
2023-05-04T02:12:42.872Z,80.1921
2023-05-04T02:13:45.398Z,80.1868
2023-05-04T02:14:47.824Z,80.3077
2023-05-04T02:15:50.261Z,80.2162
2023-05-04T02:16:52.652Z,80.3583
2023-05-04T02:17:55.058Z,80.2704
2023-05-04T02:18:57.509Z,80.1596
2023-05-04T02:19:59.862Z,80.1319
2023-05-04T02:21:02.317Z,80.0999
2023-05-04T02:22:04.738Z,80.4486
2023-05-04T02:23:07.220Z,80.4983
2023-05-04T02:24:09.639Z,80.4257
2023-05-04T02:25:12.005Z,80.5053
2023-05-04T02:26:14.375Z,80.6229
2023-05-04T02:27:16.812Z,80.7049
2023-05-04T02:28:19.166Z,80.7699
2023-05-04T02:29:21.517Z,80.8066
2023-05-04T02:30:23.954Z,80.8739
2023-05-04T02:31:26.385Z,80.8033
2023-05-04T02:32:28.876Z,81.0996
2023-05-04T02:33:31.254Z,81.0275
2023-05-04T02:34:33.667Z,81.1116
2023-05-04T02:35:36.034Z,80.9841
2023-05-04T02:36:38.499Z,80.9852
2023-05-04T02:37:40.957Z,80.9905
2023-05-04T02:38:43.376Z,81.0068
2023-05-04T02:39:45.809Z,81.0177
2023-05-04T02:40:48.286Z,80.9497
2023-05-04T02:41:50.713Z,81.2216
2023-05-04T02:42:53.150Z,81.3279
2023-05-04T02:43:55.563Z,81.1024
2023-05-04T02:44:58.024Z,81.2100
2023-05-04T02:46:00.489Z,81.3985
2023-05-04T02:47:02.955Z,81.5974
2023-05-04T02:48:05.929Z,81.8165
2023-05-04T02:49:08.451Z,81.8377
2023-05-04T02:50:10.887Z,81.6568
2023-05-04T02:51:13.288Z,81.7430
2023-05-04T02:52:15.635Z,81.8266
2023-05-04T02:53:18.058Z,81.8124
2023-05-04T02:54:20.441Z,81.8783
2023-05-04T02:55:22.811Z,81.9903
2023-05-04T02:56:25.184Z,82.1830
2023-05-04T02:57:27.615Z,82.1594
2023-05-04T02:58:29.988Z,82.0212
2023-05-04T02:59:32.432Z,82.1096
2023-05-04T03:00:34.787Z,82.1009
2023-05-04T03:01:37.240Z,81.8930
2023-05-04T03:02:39.652Z,81.8988
2023-05-04T03:03:42.014Z,81.9622
2023-05-04T03:04:44.383Z,81.9679
2023-05-04T03:05:46.803Z,81.9221
2023-05-04T03:06:49.165Z,82.0558
2023-05-04T03:07:51.544Z,81.9328
2023-05-04T03:08:53.982Z,82.0364
2023-05-04T03:09:56.376Z,81.9902
2023-05-04T03:10:58.809Z,81.8708
2023-05-04T03:12:01.232Z,81.6894
2023-05-04T03:13:03.678Z,81.7125
2023-05-04T03:14:06.152Z,81.9012
2023-05-04T03:15:08.531Z,82.0349
2023-05-04T03:16:11.052Z,82.0955
2023-05-04T03:17:13.452Z,82.0027
2023-05-04T03:18:15.923Z,82.0214
2023-05-04T03:19:18.284Z,81.9342
2023-05-04T03:20:20.716Z,82.2429
2023-05-04T03:21:23.189Z,82.4803
2023-05-04T03:22:25.603Z,82.6264
2023-05-04T03:23:27.984Z,82.7249
2023-05-04T03:24:30.400Z,82.7197
2023-05-04T03:25:32.733Z,82.7004
2023-05-04T03:26:35.231Z,82.7917
2023-05-04T03:27:37.621Z,82.7377
2023-05-04T03:28:40.023Z,82.7186
2023-05-04T03:29:42.368Z,82.8261
2023-05-04T03:30:44.836Z,82.7896
2023-05-04T03:31:47.213Z,82.8287
2023-05-04T03:32:49.669Z,82.8380
2023-05-04T03:33:52.049Z,82.8489
2023-05-04T03:34:54.484Z,82.9016
2023-05-04T03:35:56.834Z,82.9245
2023-05-04T03:36:59.220Z,82.9815
2023-05-04T03:38:01.598Z,83.0088
2023-05-04T03:39:04.200Z,83.1517
2023-05-04T03:40:06.930Z,83.1652
2023-05-04T03:41:06.891Z,83.2010
2023-05-04T03:42:09.264Z,83.3337
2023-05-04T03:43:11.657Z,83.3020
2023-05-04T03:44:14.080Z,83.2941
2023-05-04T03:45:16.527Z,83.2163
2023-05-04T03:46:18.912Z,83.0270
2023-05-04T03:47:21.304Z,82.8440
2023-05-04T03:48:23.701Z,82.6983
2023-05-04T03:49:26.127Z,82.8985
2023-05-04T03:50:28.488Z,83.0685
2023-05-04T03:51:30.878Z,83.1545
2023-05-04T03:52:33.245Z,83.1900
2023-05-04T03:53:35.704Z,83.0133
2023-05-04T03:54:38.178Z,83.2257
2023-05-04T03:55:40.637Z,83.2245
2023-05-04T03:56:43.073Z,83.3530
2023-05-04T03:57:45.477Z,83.2903
2023-05-04T03:58:47.887Z,83.3690
2023-05-04T03:59:50.606Z,83.5306
2023-05-04T04:00:52.999Z,83.4789
2023-05-04T04:01:55.489Z,83.4361
2023-05-04T04:02:57.864Z,83.4964
2023-05-04T04:04:00.376Z,83.5146
2023-05-04T04:05:02.966Z,83.4982
2023-05-04T04:06:05.360Z,83.4447
2023-05-04T04:07:07.732Z,83.3704
2023-05-04T04:08:10.106Z,83.3669
2023-05-04T04:09:12.476Z,83.5148
2023-05-04T04:10:14.903Z,83.3298
2023-05-04T04:11:17.287Z,83.1793
2023-05-04T04:12:19.721Z,83.1906
2023-05-04T04:13:22.125Z,83.3331
2023-05-04T04:14:24.557Z,83.4313
2023-05-04T04:15:26.981Z,83.4911
2023-05-04T04:16:29.363Z,83.5410
2023-05-04T04:17:31.801Z,83.4543
2023-05-04T04:18:34.261Z,83.7741
2023-05-04T04:19:36.652Z,83.4700
2023-05-04T04:20:39.042Z,83.6869
2023-05-04T04:21:41.402Z,84.0244
2023-05-04T04:22:43.800Z,84.7419
2023-05-04T04:23:46.207Z,84.1826
2023-05-04T04:24:48.612Z,84.0285
2023-05-04T04:25:51.073Z,84.3379
2023-05-04T04:26:53.488Z,84.4219
2023-05-04T04:27:55.885Z,84.3935
2023-05-04T04:28:58.285Z,84.1346
2023-05-04T04:30:00.692Z,84.2093
2023-05-04T04:31:03.239Z,83.7516
2023-05-04T04:32:05.672Z,83.9530
2023-05-04T04:33:08.081Z,84.2197
2023-05-04T04:34:10.488Z,84.4828
2023-05-04T04:35:12.836Z,84.3574
2023-05-04T04:36:15.295Z,84.1299
2023-05-04T04:37:17.670Z,83.9943
2023-05-04T04:38:20.054Z,83.5490
2023-05-04T04:39:22.521Z,83.7443
2023-05-04T04:40:24.886Z,83.7140
2023-05-04T04:41:27.289Z,83.5920
2023-05-04T04:42:29.632Z,83.8443
2023-05-04T04:43:32.061Z,83.9298
2023-05-04T04:44:34.495Z,83.8860
2023-05-04T04:45:36.884Z,83.8082
2023-05-04T04:46:39.365Z,83.7638
2023-05-04T04:47:41.796Z,83.7452
2023-05-04T04:48:44.327Z,83.7210
2023-05-04T04:49:46.750Z,83.7134
2023-05-04T04:50:49.158Z,83.6218
2023-05-04T04:51:51.724Z,83.4229
2023-05-04T04:52:54.145Z,83.4478
2023-05-04T04:53:56.589Z,83.6704
2023-05-04T04:54:59.040Z,83.5558
2023-05-04T04:56:01.488Z,83.2045
2023-05-04T04:57:03.911Z,83.4365
2023-05-04T04:58:06.602Z,83.4004
2023-05-04T04:59:09.077Z,83.5454
2023-05-04T05:00:11.724Z,83.5626
2023-05-04T05:01:14.206Z,83.4156
2023-05-04T05:02:16.719Z,83.3364
2023-05-04T05:03:19.165Z,83.3376
2023-05-04T05:04:21.661Z,83.2231
2023-05-04T05:05:24.044Z,83.3733
2023-05-04T05:06:26.543Z,83.3673
2023-05-04T05:07:29.143Z,83.4150
2023-05-04T05:08:31.712Z,83.3774
2023-05-04T05:09:34.203Z,83.3265
2023-05-04T05:10:36.684Z,83.1375
2023-05-04T05:11:39.315Z,83.1703
2023-05-04T05:12:41.819Z,83.0629
2023-05-04T05:13:44.294Z,83.0326
2023-05-04T05:14:46.724Z,83.0855
2023-05-04T05:15:49.142Z,83.0863
2023-05-04T05:16:51.712Z,82.9632
2023-05-04T05:17:54.253Z,82.7379
2023-05-04T05:18:56.751Z,82.6196
2023-05-04T05:19:59.266Z,82.6251
2023-05-04T05:21:01.680Z,82.6298
2023-05-04T05:22:04.378Z,82.5607
2023-05-04T05:23:06.798Z,82.5725
2023-05-04T05:24:09.271Z,82.5019
2023-05-04T05:25:11.703Z,82.3795
2023-05-04T05:26:14.196Z,82.1538
2023-05-04T05:27:16.666Z,81.8612
2023-05-04T05:28:19.130Z,81.8278
2023-05-04T05:29:21.575Z,81.4674
2023-05-04T05:30:24.097Z,81.4348
2023-05-04T05:31:26.688Z,81.4039
2023-05-04T05:32:26.749Z,81.2723
2023-05-04T05:33:29.202Z,81.3056
2023-05-04T05:34:31.694Z,81.2594
2023-05-04T05:35:34.149Z,81.0828
2023-05-04T05:36:36.655Z,81.0528
2023-05-04T05:37:39.073Z,81.2766
2023-05-04T05:38:41.475Z,81.1415
2023-05-04T05:39:43.916Z,81.0942
2023-05-04T05:40:46.381Z,81.0918
2023-05-04T05:41:48.788Z,80.9535
2023-05-04T05:42:51.220Z,80.6621
2023-05-04T05:43:53.677Z,80.7369
2023-05-04T05:44:56.157Z,80.5472
2023-05-04T05:45:58.620Z,80.3249
2023-05-04T05:47:01.028Z,80.4776
2023-05-04T05:48:03.515Z,80.5337
2023-05-04T05:49:06.015Z,80.3384
2023-05-04T05:50:08.672Z,80.3514
2023-05-04T05:51:11.310Z,79.9947
2023-05-04T05:52:13.787Z,79.9598
2023-05-04T05:53:16.264Z,79.7853
2023-05-04T05:54:18.697Z,79.5851
2023-05-04T05:55:21.147Z,79.6547
2023-05-04T05:56:23.614Z,79.6890
2023-05-04T05:57:26.124Z,79.5577
2023-05-04T05:58:28.551Z,79.7047
2023-05-04T05:59:31.020Z,79.6450
2023-05-04T06:00:33.489Z,79.6579
2023-05-04T06:01:35.919Z,79.9383
2023-05-04T06:02:38.624Z,80.2086
2023-05-04T06:03:41.461Z,80.1075
2023-05-04T06:04:41.351Z,79.3125
2023-05-04T06:05:43.853Z,79.0817
2023-05-04T06:06:46.325Z,78.9257
2023-05-04T06:07:48.778Z,79.0680
2023-05-04T06:08:51.273Z,79.2522
2023-05-04T06:09:53.694Z,79.8922
2023-05-04T06:10:56.080Z,79.2504
2023-05-04T06:11:58.490Z,78.7343
2023-05-04T06:13:01.006Z,78.3782
2023-05-04T06:14:03.475Z,78.2501
2023-05-04T06:15:05.949Z,77.9985
2023-05-04T06:16:08.466Z,78.1963
2023-05-04T06:17:10.889Z,78.2200
2023-05-04T06:18:13.362Z,77.9926
2023-05-04T06:19:15.751Z,78.0216
2023-05-04T06:20:18.188Z,78.0091
2023-05-04T06:21:20.643Z,77.9902
2023-05-04T06:22:23.374Z,77.9368
2023-05-04T06:23:25.771Z,77.5598
2023-05-04T06:24:28.241Z,77.4173
2023-05-04T06:25:30.637Z,77.5548
2023-05-04T06:26:33.103Z,77.8037
2023-05-04T06:27:35.623Z,77.3555
2023-05-04T06:28:38.060Z,77.4214
2023-05-04T06:29:40.501Z,77.7046
2023-05-04T06:30:42.993Z,77.2693
2023-05-04T06:31:46.777Z,76.6284
2023-05-04T06:32:48.015Z,76.4866
2023-05-04T06:33:50.544Z,76.4670
2023-05-04T06:34:53.003Z,76.2955
2023-05-04T06:35:55.469Z,76.6674
2023-05-04T06:36:57.933Z,76.8308
2023-05-04T06:38:00.339Z,76.9216
2023-05-04T06:39:02.768Z,76.8115
2023-05-04T06:40:05.254Z,76.7286
2023-05-04T06:41:07.706Z,76.3681
2023-05-04T06:42:10.093Z,76.0890
2023-05-04T06:43:12.569Z,76.5422
2023-05-04T06:44:15.014Z,76.3455
2023-05-04T06:45:17.442Z,76.2236
2023-05-04T06:46:19.906Z,76.4109
2023-05-04T06:47:22.451Z,76.7855
2023-05-04T06:48:25.015Z,76.7520
2023-05-04T06:49:27.413Z,76.4868
2023-05-04T06:50:29.810Z,76.2322
2023-05-04T06:51:32.263Z,75.7639
2023-05-04T06:52:34.678Z,75.6733
2023-05-04T06:53:37.305Z,76.0379
2023-05-04T06:54:39.676Z,75.5805
2023-05-04T06:55:42.086Z,74.9930
2023-05-04T06:56:44.520Z,74.8753
2023-05-04T06:57:46.913Z,75.0045
2023-05-04T06:58:49.326Z,75.6863
2023-05-04T06:59:51.739Z,75.4422
2023-05-04T07:00:54.136Z,74.6482
2023-05-04T07:01:56.522Z,74.5497
2023-05-04T07:02:58.969Z,74.6815
2023-05-04T07:04:01.415Z,75.0062
2023-05-04T07:05:03.855Z,74.4839
2023-05-04T07:06:06.360Z,74.2696
2023-05-04T07:07:08.784Z,74.4310
2023-05-04T07:08:11.173Z,74.3927
2023-05-04T07:09:13.579Z,74.1677
2023-05-04T07:10:16.001Z,74.0418
2023-05-04T07:11:18.406Z,74.6530
2023-05-04T07:12:20.871Z,74.5658
2023-05-04T07:13:23.478Z,75.4227
2023-05-04T07:14:25.864Z,75.2168
2023-05-04T07:15:28.276Z,74.8753
2023-05-04T07:16:30.658Z,75.2243
2023-05-04T07:17:33.076Z,75.1510
2023-05-04T07:18:35.511Z,75.2040
2023-05-04T07:19:37.961Z,74.7596
2023-05-04T07:20:40.362Z,74.7333
2023-05-04T07:21:42.806Z,74.9843
2023-05-04T07:22:45.199Z,74.7208
2023-05-04T07:23:47.558Z,74.7634
2023-05-04T07:24:49.966Z,74.7653
2023-05-04T07:25:53.607Z,74.5618
2023-05-04T07:26:53.541Z,74.4602
2023-05-04T07:27:55.937Z,74.3550
2023-05-04T07:28:58.328Z,74.3728
2023-05-04T07:30:00.729Z,74.0919
2023-05-04T07:31:03.090Z,74.1618
2023-05-04T07:32:05.527Z,74.0183
2023-05-04T07:33:07.915Z,73.6740
2023-05-04T07:34:10.288Z,73.2548
2023-05-04T07:35:12.891Z,73.2362
2023-05-04T07:36:15.337Z,73.2309
2023-05-04T07:37:17.761Z,73.5047
2023-05-04T07:38:20.128Z,74.3649
2023-05-04T07:39:22.558Z,74.0552
2023-05-04T07:40:24.991Z,73.4845
2023-05-04T07:41:27.421Z,73.3265
2023-05-04T07:42:29.857Z,73.3602
2023-05-04T07:43:32.238Z,73.0911
2023-05-04T07:44:34.647Z,72.9381
2023-05-04T07:45:37.096Z,73.0992
2023-05-04T07:46:39.629Z,73.2926
2023-05-04T07:47:42.196Z,73.2685
2023-05-04T07:48:44.646Z,73.3005
2023-05-04T07:49:47.065Z,73.5354
2023-05-04T07:50:49.472Z,73.3536
2023-05-04T07:51:51.900Z,72.9015
2023-05-04T07:52:54.341Z,72.5849
2023-05-04T07:53:56.759Z,72.4801
2023-05-04T07:54:59.170Z,72.3985
2023-05-04T07:56:01.573Z,72.5589
2023-05-04T07:57:03.998Z,72.2618
2023-05-04T07:58:06.391Z,72.2637
2023-05-04T07:59:08.813Z,72.0686
2023-05-04T08:00:11.196Z,72.3159
2023-05-04T08:01:13.599Z,73.2102
2023-05-04T08:02:16.015Z,72.7811
2023-05-04T08:03:18.412Z,73.1144
2023-05-04T08:04:20.814Z,72.0523
2023-05-04T08:05:23.283Z,71.9599
2023-05-04T08:06:25.725Z,72.0217
2023-05-04T08:07:28.129Z,72.1198
2023-05-04T08:08:30.515Z,72.3357
2023-05-04T08:09:32.857Z,71.8778
2023-05-04T08:10:35.267Z,71.4936
2023-05-04T08:11:37.869Z,71.2874
2023-05-04T08:12:37.912Z,71.1943
2023-05-04T08:13:40.298Z,71.4891
2023-05-04T08:14:42.667Z,71.2724
2023-05-04T08:15:45.024Z,70.7207
2023-05-04T08:16:47.438Z,70.3182
2023-05-04T08:17:49.848Z,70.4897
2023-05-04T08:18:52.204Z,71.2270
2023-05-04T08:19:54.584Z,70.4940
2023-05-04T08:20:56.981Z,70.4529
2023-05-04T08:21:59.314Z,70.0416
2023-05-04T08:23:01.916Z,69.5363
2023-05-04T08:24:04.426Z,69.9151
2023-05-04T08:25:06.988Z,70.9047
2023-05-04T08:26:06.794Z,70.9723
2023-05-04T08:27:09.317Z,70.2236
2023-05-04T08:28:09.709Z,70.3083
2023-05-04T08:29:12.097Z,69.9761
2023-05-04T08:30:14.493Z,69.4504
2023-05-04T08:31:16.958Z,69.4295
2023-05-04T08:32:19.328Z,69.1023
2023-05-04T08:33:21.695Z,69.0356
2023-05-04T08:34:24.093Z,69.2400
2023-05-04T08:35:26.474Z,69.4541
2023-05-04T08:36:28.855Z,68.9192
2023-05-04T08:37:31.193Z,69.3020
2023-05-04T08:38:33.608Z,68.7840
2023-05-04T08:39:35.959Z,68.3224
2023-05-04T08:40:38.345Z,68.5369
2023-05-04T08:41:40.689Z,68.3961
2023-05-04T08:42:43.090Z,68.5077
2023-05-04T08:43:45.446Z,67.8324
2023-05-04T08:44:47.856Z,67.8887
2023-05-04T08:45:50.299Z,67.3634
2023-05-04T08:46:52.711Z,67.1239
2023-05-04T08:47:55.150Z,67.1339
2023-05-04T08:48:57.643Z,67.6075
2023-05-04T08:50:00.031Z,66.8657
2023-05-04T08:51:02.400Z,67.0053
2023-05-04T08:52:04.755Z,67.3948
2023-05-04T08:53:07.140Z,67.0267
2023-05-04T08:54:09.516Z,66.3788
2023-05-04T08:55:11.901Z,66.3151
2023-05-04T08:56:14.237Z,66.3964
2023-05-04T08:57:14.316Z,67.0521
2023-05-04T08:58:16.676Z,66.2562
2023-05-04T08:59:19.015Z,66.2438
2023-05-04T09:00:21.382Z,66.0381
2023-05-04T09:01:23.839Z,65.6931
2023-05-04T09:02:26.274Z,65.7956
2023-05-04T09:03:28.727Z,65.5589
2023-05-04T09:04:31.141Z,65.1980
2023-05-04T09:05:33.528Z,65.4178
2023-05-04T09:06:35.868Z,65.3504
2023-05-04T09:07:38.207Z,64.8324
2023-05-04T09:08:40.604Z,64.8550
2023-05-04T09:09:42.965Z,65.7997
2023-05-04T09:10:45.340Z,65.7139
2023-05-04T09:11:47.711Z,65.7379
2023-05-04T09:12:50.092Z,64.9973
2023-05-04T09:13:52.458Z,65.2150
2023-05-04T09:14:54.799Z,64.8139
2023-05-04T09:15:57.185Z,65.5779
2023-05-04T09:16:59.541Z,64.9708
2023-05-04T09:18:01.943Z,64.6913
2023-05-04T09:19:04.291Z,64.4712
2023-05-04T09:20:06.654Z,64.2178
2023-05-04T09:21:09.017Z,64.1075
2023-05-04T09:22:11.391Z,63.8229
2023-05-04T09:23:13.849Z,63.5338
2023-05-04T09:24:16.207Z,63.7903
2023-05-04T09:25:18.632Z,64.9250
2023-05-04T09:26:20.995Z,65.9919
2023-05-04T09:27:23.313Z,65.5003
2023-05-04T09:28:27.739Z,65.0849
2023-05-04T09:29:28.319Z,64.7196
2023-05-04T09:30:30.648Z,64.7904
2023-05-04T09:31:33.110Z,64.4767
2023-05-04T09:32:35.559Z,63.5286
2023-05-04T09:33:37.866Z,63.1850
2023-05-04T09:34:40.235Z,63.3968
2023-05-04T09:35:42.600Z,63.7315
2023-05-04T09:36:44.959Z,63.7251
2023-05-04T09:37:47.341Z,63.1943
2023-05-04T09:38:49.674Z,63.2833
2023-05-04T09:39:52.073Z,63.5722
2023-05-04T09:40:54.485Z,63.0317
2023-05-04T09:41:56.813Z,63.4496
2023-05-04T09:42:59.122Z,63.2255
2023-05-04T09:44:01.452Z,62.8004
2023-05-04T09:45:04.085Z,63.3792
2023-05-04T09:46:03.974Z,63.0073
2023-05-04T09:47:06.311Z,62.9280
2023-05-04T09:48:08.745Z,63.3761
2023-05-04T09:49:11.126Z,62.6232
2023-05-04T09:50:13.510Z,63.1393
2023-05-04T09:51:15.888Z,63.3768
2023-05-04T09:52:18.219Z,62.5442
2023-05-04T09:53:20.601Z,62.4723
2023-05-04T09:54:22.963Z,62.6325
2023-05-04T09:55:25.300Z,62.3038
2023-05-04T09:56:27.776Z,62.3276
2023-05-04T09:57:30.110Z,62.5121
2023-05-04T09:58:32.441Z,62.3968
2023-05-04T09:59:34.815Z,62.3894
2023-05-04T10:00:37.125Z,62.2629
2023-05-04T10:01:39.530Z,62.5134
2023-05-04T10:02:41.876Z,62.6531
2023-05-04T10:03:44.309Z,62.2777
2023-05-04T10:04:46.684Z,62.6102
2023-05-04T10:05:49.102Z,62.5322
2023-05-04T10:06:51.679Z,61.7020
2023-05-04T10:07:54.247Z,61.2932
2023-05-04T10:08:55.849Z,61.9422
2023-05-04T10:09:59.608Z,61.2253
2023-05-04T10:11:02.029Z,61.0400
2023-05-04T10:12:04.407Z,60.9300
2023-05-04T10:13:06.849Z,60.0899
2023-05-04T10:14:09.264Z,59.6525
2023-05-04T10:15:11.617Z,60.4461
2023-05-04T10:16:14.083Z,60.6330
2023-05-04T10:17:16.475Z,60.9780
2023-05-04T10:18:18.895Z,61.1939
2023-05-04T10:19:21.256Z,60.0996
2023-05-04T10:20:23.695Z,59.6573
2023-05-04T10:21:26.173Z,59.7111
2023-05-04T10:22:28.529Z,59.9945
2023-05-04T10:23:30.961Z,60.4323
2023-05-04T10:24:33.318Z,60.1993
2023-05-04T10:25:35.757Z,60.2894
2023-05-04T10:26:38.161Z,60.0989
2023-05-04T10:27:40.598Z,60.2217
2023-05-04T10:28:43.025Z,60.1176
2023-05-04T10:29:45.445Z,60.5477
2023-05-04T10:30:47.901Z,60.0491
2023-05-04T10:31:50.372Z,59.2160
2023-05-04T10:32:52.775Z,59.0734
2023-05-04T10:33:55.101Z,59.3242
2023-05-04T10:34:57.468Z,59.5440
2023-05-04T10:35:59.851Z,59.1780
2023-05-04T10:37:02.337Z,59.5920
2023-05-04T10:38:04.710Z,59.1214
2023-05-04T10:39:07.084Z,58.2447
2023-05-04T10:40:09.453Z,58.5442
2023-05-04T10:41:11.816Z,59.0852
2023-05-04T10:42:14.232Z,60.0437
2023-05-04T10:43:16.577Z,59.1867
2023-05-04T10:44:18.958Z,58.8240
2023-05-04T10:45:21.344Z,58.3301
2023-05-04T10:46:23.728Z,58.5259
2023-05-04T10:47:26.148Z,58.3661
2023-05-04T10:48:28.502Z,58.9181
2023-05-04T10:49:30.910Z,58.5170
2023-05-04T10:50:33.365Z,57.8372
2023-05-04T10:51:48.701Z,57.8389
2023-05-04T10:52:33.976Z,58.1335
2023-05-04T10:53:36.519Z,58.3361
2023-05-04T10:54:38.960Z,57.2862
2023-05-04T10:55:41.328Z,57.0463
2023-05-04T10:56:43.658Z,56.0588
2023-05-04T10:57:46.063Z,56.0378
2023-05-04T10:58:48.494Z,55.9511
2023-05-04T10:59:50.878Z,56.1438
2023-05-04T11:00:53.298Z,53.9637
2023-05-04T11:01:55.712Z,52.6410
2023-05-04T11:02:58.166Z,51.8326
2023-05-04T11:04:00.618Z,53.0546
2023-05-04T11:05:03.268Z,53.6424
2023-05-04T11:06:03.310Z,54.3774
2023-05-04T11:07:05.847Z,52.5956
2023-05-04T11:08:08.296Z,51.6811
2023-05-04T11:09:10.623Z,50.9626
2023-05-04T11:10:13.007Z,50.0107
2023-05-04T11:11:15.316Z,50.1832
2023-05-04T11:12:17.598Z,50.8015
2023-05-04T11:13:19.916Z,52.4050
2023-05-04T11:14:22.178Z,51.6790
2023-05-04T11:15:24.507Z,51.8438
2023-05-04T11:16:26.874Z,51.1102
2023-05-04T11:17:29.138Z,50.3959
2023-05-04T11:18:31.403Z,49.8709
2023-05-04T11:19:33.698Z,50.0198
2023-05-04T11:20:35.978Z,48.8885
2023-05-04T11:21:38.257Z,48.4953
2023-05-04T11:22:40.549Z,50.8450
2023-05-04T11:23:42.775Z,50.2204
2023-05-04T11:24:45.075Z,49.6754
2023-05-04T11:25:47.361Z,46.9762
2023-05-04T11:26:49.664Z,46.5334
2023-05-04T11:27:52.073Z,47.8130
2023-05-04T11:28:54.322Z,47.4715
2023-05-04T11:29:56.579Z,44.7872
2023-05-04T11:30:59.308Z,46.0692
2023-05-04T11:31:59.651Z,47.5440
2023-05-04T11:33:01.969Z,46.5546
2023-05-04T11:34:04.188Z,47.4379
2023-05-04T11:35:06.641Z,45.0250
2023-05-04T11:36:06.223Z,46.5349
2023-05-04T11:37:08.437Z,46.0386
2023-05-04T11:38:10.673Z,42.8640
2023-05-04T11:39:12.838Z,42.8629
2023-05-04T11:40:15.102Z,42.7996
2023-05-04T11:41:17.304Z,41.7701
2023-05-04T11:42:19.520Z,42.2132
2023-05-04T11:43:21.642Z,44.4265
2023-05-04T11:44:23.767Z,43.0266
2023-05-04T11:45:25.946Z,41.5470
2023-05-04T11:46:28.169Z,44.2249
2023-05-04T11:47:30.243Z,44.6352
2023-05-04T11:48:32.388Z,43.5864
2023-05-04T11:49:34.518Z,42.9333
2023-05-04T11:50:36.593Z,44.6774
2023-05-04T11:51:38.812Z,45.2459
2023-05-04T11:52:41.201Z,43.5623
2023-05-04T11:53:43.354Z,43.2842
2023-05-04T11:54:45.520Z,42.6120
2023-05-04T11:55:47.697Z,41.2262
2023-05-04T11:56:49.812Z,41.8155
2023-05-04T11:57:51.952Z,42.9733
2023-05-04T11:58:54.074Z,41.3970
2023-05-04T11:59:56.227Z,41.7425
2023-05-04T12:00:58.344Z,41.3316
2023-05-04T12:02:00.482Z,39.1135
2023-05-04T12:03:02.712Z,37.0931
2023-05-04T12:04:05.024Z,36.5118
2023-05-04T12:05:07.389Z,37.6063
2023-05-04T12:06:07.256Z,41.9714
2023-05-04T12:07:09.403Z,42.7101
2023-05-04T12:08:11.529Z,40.8259
2023-05-04T12:09:13.655Z,39.5296
2023-05-04T12:10:15.812Z,40.2707
2023-05-04T12:11:16.599Z,37.5821
2023-05-04T12:12:18.762Z,35.5636
2023-05-04T12:13:20.901Z,34.5727
2023-05-04T12:14:22.975Z,34.8442
2023-05-04T12:15:25.141Z,33.8924
2023-05-04T12:16:27.302Z,36.1049
2023-05-04T12:17:29.499Z,38.5217
2023-05-04T12:18:31.578Z,37.8006
2023-05-04T12:19:33.691Z,36.1164
2023-05-04T12:20:35.878Z,39.0171
2023-05-04T12:21:37.998Z,35.2174
2023-05-04T12:22:40.063Z,36.3025
2023-05-04T12:23:42.149Z,35.2280
2023-05-04T12:24:44.303Z,36.6803
2023-05-04T12:25:57.419Z,36.3773
2023-05-04T12:26:48.817Z,35.3688
2023-05-04T12:27:50.938Z,36.1223
2023-05-04T12:28:53.052Z,34.4697
2023-05-04T12:29:55.135Z,36.2464
2023-05-04T12:30:57.316Z,36.1830
2023-05-04T12:31:59.479Z,36.2410
2023-05-04T12:33:01.774Z,37.3164
2023-05-04T12:34:03.911Z,35.8833